CYAH

La Grande IV Airport

La Grande, Canada
METAR CYAH 172335Z AUTO 19014KT 2 1/2SM -SN OVC042 M13/M15 A2949 RMK SLP019
Observed Flight Rules
Jan-17 @ 23:35 UTC (34 minutes ago) Instrument Flight Rules
Wind Visibility Clouds Conditions
190° at 14 knots 2 1/2 miles
  • Overcast at 4,200' AGL
  • Light Snow
Temperatures Readings
Current -13°C / 9°F
Dewpoint -15°C / 5°F
Humidity 85%
Altimeter 29.49" Hg
Pressure 1001.9 hPa
Elevation 306
METAR CYAH 172335Z AUTO 19014KT 2 1/2SM -SN OVC042 M13/M15 A2949 RMK SLP019
Observed Flight Rules
Jan-17 @ 23:35 UTC
(34 minutes ago)
IFR
Wind Visibility
190° at 14 knots 2 1/2 miles
Clouds
  • Overcast at 4,200' AGL
Conditions
  • Light Snow
Temperature Dewpoint
-13°C / 9°F -15°C / 5°F
Humidity Altimeter Pressure
85% 29.49" Hg 1001.9 hPa